createdAt,value
2018-06-08T00:00:10.279Z,17.60
2018-06-08T00:02:39.131Z,17.50
2018-06-08T00:05:07.458Z,17.60
2018-06-08T00:07:35.069Z,17.60
2018-06-08T00:10:04.545Z,17.60
2018-06-08T00:12:32.180Z,17.50
2018-06-08T00:14:59.738Z,17.60
2018-06-08T00:17:27.364Z,17.50
2018-06-08T00:19:54.916Z,17.50
2018-06-08T00:22:23.346Z,17.40
2018-06-08T00:24:54.971Z,17.40
2018-06-08T00:27:23.669Z,17.30
2018-06-08T00:29:53.801Z,17.30
2018-06-08T00:32:22.368Z,17.20
2018-06-08T00:34:50.875Z,17.30
2018-06-08T00:37:19.741Z,17.30
2018-06-08T00:39:49.203Z,17.20
2018-06-08T00:42:21.306Z,17.30
2018-06-08T00:47:24.109Z,17.30
2018-06-08T00:49:52.583Z,17.30
2018-06-08T00:52:25.097Z,17.30
2018-06-08T00:57:38.925Z,17.40
2018-06-08T01:00:10.239Z,17.10
2018-06-08T01:02:41.915Z,17.10
2018-06-08T01:05:14.298Z,17.10
2018-06-08T01:07:48.932Z,17.20
2018-06-08T01:10:20.049Z,17.20
2018-06-08T01:12:52.809Z,17.20
2018-06-08T01:15:27.023Z,17.10
2018-06-08T01:17:58.061Z,17.10
2018-06-08T01:20:35.693Z,17.20
2018-06-08T01:23:07.948Z,17.00
2018-06-08T01:25:42.923Z,17.00
2018-06-08T01:28:18.133Z,17.00
2018-06-08T01:30:48.283Z,17.00
2018-06-08T01:33:18.230Z,17.00
2018-06-08T01:35:56.440Z,17.00
2018-06-08T01:38:24.021Z,16.90
2018-06-08T01:40:57.880Z,16.70
2018-06-08T01:43:27.160Z,16.70
2018-06-08T01:45:56.790Z,16.70
2018-06-08T01:48:27.472Z,16.80
2018-06-08T01:50:56.157Z,16.90
2018-06-08T01:53:27.826Z,16.80
2018-06-08T01:56:01.467Z,16.70
2018-06-08T01:58:32.023Z,16.80
2018-06-08T02:00:59.640Z,16.70
2018-06-08T02:03:30.427Z,16.80
2018-06-08T02:05:59.405Z,16.90
2018-06-08T02:08:28.843Z,16.90
2018-06-08T02:10:56.504Z,16.90
2018-06-08T02:13:24.719Z,16.80
2018-06-08T02:15:52.902Z,16.60
2018-06-08T02:18:22.986Z,16.50
2018-06-08T02:20:51.381Z,16.60
2018-06-08T02:23:22.406Z,16.80
2018-06-08T02:25:50.280Z,16.70
2018-06-08T02:28:20.829Z,16.80
2018-06-08T02:30:49.170Z,16.80
2018-06-08T02:33:20.689Z,16.80
2018-06-08T02:35:49.034Z,16.70
2018-06-08T02:38:17.134Z,16.60
2018-06-08T02:40:44.678Z,16.60
2018-06-08T02:43:13.450Z,16.70
2018-06-08T02:45:41.788Z,16.70
2018-06-08T02:48:10.159Z,16.70
2018-06-08T02:50:37.696Z,16.80
2018-06-08T02:53:05.409Z,16.70
2018-06-08T02:55:33.784Z,16.70
2018-06-08T02:58:01.369Z,16.70
2018-06-08T03:00:30.821Z,16.70
2018-06-08T03:03:00.284Z,16.60
2018-06-08T03:05:28.120Z,16.60
2018-06-08T03:07:57.025Z,16.60
2018-06-08T03:10:26.180Z,16.60
2018-06-08T03:12:53.821Z,16.50
2018-06-08T03:15:21.404Z,16.50
2018-06-08T03:17:48.936Z,16.50
2018-06-08T03:20:16.581Z,16.50
2018-06-08T03:22:44.909Z,16.50
2018-06-08T03:25:27.311Z,16.50
2018-06-08T03:27:54.962Z,16.50
2018-06-08T03:30:23.474Z,16.50
2018-06-08T03:32:51.031Z,16.50
2018-06-08T03:35:19.390Z,16.40
2018-06-08T03:37:47.703Z,16.40
2018-06-08T03:40:17.150Z,16.30
2018-06-08T03:42:45.060Z,16.20
2018-06-08T03:45:13.760Z,16.20
2018-06-08T03:47:43.280Z,16.20
2018-06-08T03:50:10.856Z,16.20
2018-06-08T03:52:38.417Z,16.20
2018-06-08T03:55:06.325Z,16.20
2018-06-08T03:57:33.891Z,16.10
2018-06-08T04:00:02.215Z,16.20
2018-06-08T04:02:31.062Z,16.20
2018-06-08T04:04:58.575Z,16.20
2018-06-08T04:07:26.128Z,16.20
2018-06-08T04:09:54.637Z,16.20
2018-06-08T04:12:22.210Z,16.20
2018-06-08T04:14:51.167Z,16.20
2018-06-08T04:17:18.717Z,16.20
2018-06-08T04:19:47.101Z,16.10
2018-06-08T04:22:15.244Z,16.10
2018-06-08T04:24:42.800Z,16.20
2018-06-08T04:27:10.678Z,16.30
2018-06-08T04:29:40.238Z,16.30
2018-06-08T04:32:08.601Z,16.50
2018-06-08T04:34:37.913Z,16.50
2018-06-08T04:37:07.009Z,16.70
2018-06-08T04:39:37.863Z,16.90
2018-06-08T04:42:05.423Z,16.90
2018-06-08T04:44:32.988Z,17.00
2018-06-08T04:47:03.565Z,17.00
2018-06-08T04:49:31.145Z,17.10
2018-06-08T04:51:59.469Z,17.20
2018-06-08T04:54:28.340Z,17.20
2018-06-08T04:56:59.764Z,17.30
2018-06-08T04:59:28.127Z,17.40
2018-06-08T05:02:02.233Z,17.40
2018-06-08T05:04:32.667Z,17.50
2018-06-08T05:07:02.161Z,17.60
2018-06-08T05:09:31.648Z,17.70
2018-06-08T05:12:01.869Z,17.80
2018-06-08T05:14:35.665Z,17.80
2018-06-08T05:17:05.156Z,17.90
2018-06-08T05:19:37.851Z,18.10
2018-06-08T05:22:06.619Z,18.10
2018-06-08T05:24:40.653Z,18.10
2018-06-08T05:27:08.775Z,18.20
2018-06-08T05:37:10.363Z,18.40
2018-06-08T05:39:38.683Z,18.60
2018-06-08T05:42:08.195Z,18.60
2018-06-08T05:44:35.736Z,18.70
2018-06-08T05:47:03.304Z,18.80
2018-06-08T05:49:30.860Z,18.90
2018-06-08T05:51:58.418Z,18.70
2018-06-08T05:54:25.978Z,18.70
2018-06-08T05:56:55.044Z,18.90
2018-06-08T05:59:25.456Z,19.00
2018-06-08T06:01:53.760Z,19.10
2018-06-08T06:04:21.319Z,19.10
2018-06-08T06:06:48.907Z,19.20
2018-06-08T06:09:18.445Z,19.40
2018-06-08T06:11:49.755Z,19.50
2018-06-08T06:14:19.679Z,19.70
2018-06-08T06:16:48.550Z,19.80
2018-06-08T06:19:23.113Z,19.90
2018-06-08T06:21:50.650Z,19.80
2018-06-08T06:24:18.201Z,19.80
2018-06-08T06:26:48.969Z,19.90
2018-06-08T06:29:17.558Z,20.00
2018-06-08T06:31:46.747Z,20.40
2018-06-08T06:34:15.045Z,20.40
2018-06-08T06:36:43.410Z,20.70
2018-06-08T06:39:11.080Z,20.70
2018-06-08T06:41:39.420Z,20.60
2018-06-08T06:44:07.076Z,20.60
2018-06-08T06:46:34.614Z,20.60
2018-06-08T06:49:02.207Z,20.80
2018-06-08T06:53:31.082Z,21.00
2018-06-08T06:55:59.769Z,21.20
2018-06-08T06:58:27.344Z,21.30
2018-06-08T07:00:54.928Z,21.50
2018-06-08T07:03:22.477Z,21.40
2018-06-08T07:05:50.032Z,21.40
2018-06-08T07:08:17.570Z,21.40
2018-06-08T07:10:45.117Z,21.20
2018-06-08T07:13:12.649Z,21.20
2018-06-08T07:15:41.116Z,21.30
2018-06-08T07:18:08.670Z,21.50
2018-06-08T07:20:36.217Z,21.50
2018-06-08T07:23:03.780Z,21.60
2018-06-08T07:25:31.333Z,21.90
2018-06-08T07:27:58.864Z,22.00
2018-06-08T07:30:26.417Z,22.20
2018-06-08T07:32:53.958Z,22.20
2018-06-08T07:35:21.527Z,22.10
2018-06-08T07:37:49.103Z,22.30
2018-06-08T07:40:16.707Z,22.40
2018-06-08T07:42:45.134Z,22.50
2018-06-08T07:45:14.372Z,22.80
2018-06-08T07:47:41.913Z,22.80
2018-06-08T07:50:09.460Z,22.90
2018-06-08T07:52:36.977Z,23.00
2018-06-08T07:55:05.290Z,23.10
2018-06-08T07:57:32.853Z,23.10
2018-06-08T08:00:00.398Z,23.20
2018-06-08T08:02:27.912Z,23.30
2018-06-08T08:04:55.435Z,23.40
2018-06-08T08:07:23.032Z,23.50
2018-06-08T08:09:51.321Z,23.60
2018-06-08T08:12:19.646Z,23.60
2018-06-08T08:14:47.172Z,23.60
2018-06-08T08:17:14.706Z,23.50
2018-06-08T08:19:42.274Z,23.40
2018-06-08T08:22:10.763Z,23.40
2018-06-08T08:24:39.080Z,23.60
2018-06-08T08:27:06.628Z,23.60
2018-06-08T08:29:34.174Z,23.70
2018-06-08T08:32:01.751Z,23.80
2018-06-08T08:34:31.272Z,23.90
2018-06-08T08:37:01.308Z,23.80
2018-06-08T08:39:28.866Z,24.00
2018-06-08T08:41:56.389Z,24.10
2018-06-08T08:44:23.969Z,24.10
2018-06-08T08:46:51.508Z,23.80
2018-06-08T08:49:19.063Z,23.90
2018-06-08T08:51:46.720Z,24.10
2018-06-08T08:54:14.202Z,24.10
2018-06-08T08:56:41.759Z,24.10
2018-06-08T08:59:09.311Z,23.90
2018-06-08T09:01:36.880Z,24.00
2018-06-08T09:04:12.696Z,24.20
2018-06-08T09:06:40.253Z,24.30
2018-06-08T09:09:08.545Z,24.20
2018-06-08T09:11:36.095Z,24.20
2018-06-08T09:14:03.625Z,24.20
2018-06-08T09:16:31.158Z,24.30
2018-06-08T09:18:58.707Z,24.20
2018-06-08T09:24:02.896Z,24.60
2018-06-08T09:26:30.415Z,24.50
2018-06-08T09:29:01.024Z,24.60
2018-06-08T09:31:28.547Z,24.90
2018-06-08T09:33:56.095Z,24.90
2018-06-08T09:36:23.651Z,25.20
2018-06-08T09:38:51.964Z,25.20
2018-06-08T09:41:19.479Z,25.20
2018-06-08T09:43:47.767Z,25.50
2018-06-08T09:46:15.374Z,25.50
2018-06-08T09:48:42.884Z,25.60
2018-06-08T09:51:13.128Z,25.40
2018-06-08T09:53:40.674Z,25.30
2018-06-08T09:56:08.206Z,25.50
2018-06-08T09:58:36.695Z,25.70
2018-06-08T10:01:06.267Z,25.80
2018-06-08T10:03:33.788Z,25.90
2018-06-08T10:06:01.339Z,25.90
2018-06-08T10:08:29.827Z,25.90
2018-06-08T10:10:57.347Z,26.00
2018-06-08T10:13:24.892Z,25.90
2018-06-08T10:15:52.420Z,25.70
2018-06-08T10:18:19.980Z,25.60
2018-06-08T10:20:47.494Z,25.50
2018-06-08T10:23:15.042Z,25.60
2018-06-08T10:25:42.570Z,25.60
2018-06-08T10:28:11.054Z,25.50
2018-06-08T10:30:38.628Z,25.60
2018-06-08T10:33:06.181Z,25.80
2018-06-08T10:35:33.728Z,26.00
2018-06-08T10:38:01.248Z,26.10
2018-06-08T10:40:28.800Z,26.20
2018-06-08T10:42:57.087Z,26.10
2018-06-08T10:45:24.619Z,26.10
2018-06-08T10:47:52.170Z,26.10
2018-06-08T10:50:19.697Z,25.60
2018-06-08T10:52:47.236Z,25.30
2018-06-08T10:55:14.775Z,25.10
2018-06-08T10:57:44.487Z,25.20
2018-06-08T11:00:12.977Z,25.50
2018-06-08T11:02:40.535Z,25.60
2018-06-08T11:05:08.090Z,25.90
2018-06-08T11:07:35.629Z,26.10
2018-06-08T11:10:03.215Z,26.30
2018-06-08T11:12:30.752Z,26.30
2018-06-08T11:15:02.730Z,26.10
2018-06-08T11:17:30.399Z,26.10
2018-06-08T11:19:57.986Z,26.20
2018-06-08T11:22:25.580Z,26.30
2018-06-08T11:24:53.140Z,25.90
2018-06-08T11:27:20.967Z,25.80
2018-06-08T11:29:49.274Z,25.90
2018-06-08T11:32:16.834Z,25.80
2018-06-08T11:34:44.404Z,25.90
2018-06-08T11:37:13.118Z,26.00
2018-06-08T11:39:40.659Z,25.60
2018-06-08T11:42:09.219Z,25.70
2018-06-08T11:44:37.734Z,25.90
2018-06-08T11:47:06.292Z,26.10
2018-06-08T11:49:33.898Z,26.10
2018-06-08T11:52:01.709Z,26.30
2018-06-08T11:54:29.248Z,26.50
2018-06-08T11:56:57.784Z,26.70
2018-06-08T11:59:26.078Z,26.70
2018-06-08T12:01:53.638Z,26.70
2018-06-08T12:04:23.181Z,26.70
2018-06-08T12:06:51.652Z,26.80
2018-06-08T12:09:19.185Z,27.00
2018-06-08T12:11:46.732Z,27.40
2018-06-08T12:14:14.270Z,27.40
2018-06-08T12:16:42.612Z,27.00
2018-06-08T12:19:10.182Z,27.00
2018-06-08T12:21:37.729Z,27.00
2018-06-08T12:24:05.357Z,27.10
2018-06-08T12:26:33.862Z,26.50
2018-06-08T12:29:01.415Z,26.50
2018-06-08T12:31:29.065Z,26.30
2018-06-08T12:33:56.775Z,26.30
2018-06-08T12:36:24.536Z,26.10
2018-06-08T12:38:52.269Z,26.10
2018-06-08T12:41:21.044Z,26.40
2018-06-08T12:43:48.808Z,26.30
2018-06-08T12:46:16.428Z,26.30
2018-06-08T12:48:44.016Z,26.40
2018-06-08T12:51:11.615Z,26.50
2018-06-08T12:53:39.154Z,26.40
2018-06-08T12:56:06.700Z,26.30
2018-06-08T12:58:34.379Z,26.30
2018-06-08T13:01:01.911Z,26.20
2018-06-08T13:03:29.491Z,26.00
2018-06-08T13:05:57.969Z,26.00
2018-06-08T13:08:25.553Z,25.90
2018-06-08T13:10:53.113Z,25.80
2018-06-08T13:13:20.652Z,25.30
2018-06-08T13:15:48.353Z,25.20
2018-06-08T13:18:15.975Z,25.10
2018-06-08T13:20:43.539Z,24.90
2018-06-08T13:23:11.096Z,24.60
2018-06-08T13:25:39.544Z,24.50
2018-06-08T13:28:07.132Z,24.40
2018-06-08T13:30:34.874Z,23.40
2018-06-08T13:33:02.586Z,22.80
2018-06-08T13:35:30.120Z,22.50
2018-06-08T13:37:57.672Z,22.30
2018-06-08T13:40:25.209Z,22.40
2018-06-08T13:42:53.081Z,22.30
2018-06-08T13:45:20.646Z,22.30
2018-06-08T13:47:48.220Z,22.40
2018-06-08T13:50:15.767Z,22.60
2018-06-08T13:52:43.338Z,22.40
2018-06-08T13:55:10.868Z,22.40
2018-06-08T13:57:38.442Z,22.40
2018-06-08T14:00:05.965Z,22.20
2018-06-08T14:02:33.540Z,21.90
2018-06-08T14:05:02.853Z,21.80
2018-06-08T14:07:32.099Z,21.90
2018-06-08T14:09:59.655Z,21.90
2018-06-08T14:12:28.143Z,21.90
2018-06-08T14:14:55.694Z,22.00
2018-06-08T14:17:23.259Z,21.90
2018-06-08T14:19:50.819Z,21.90
2018-06-08T14:22:18.342Z,21.70
2018-06-08T14:24:45.893Z,21.60
2018-06-08T14:27:13.772Z,21.20
2018-06-08T14:29:41.446Z,21.00
2018-06-08T14:32:09.198Z,20.90
2018-06-08T14:34:36.977Z,21.10
2018-06-08T14:37:04.527Z,21.10
2018-06-08T14:39:33.340Z,21.10
2018-06-08T14:42:01.904Z,21.20
2018-06-08T14:44:29.459Z,21.30
2018-06-08T14:46:57.016Z,21.30
2018-06-08T14:49:24.572Z,21.40
2018-06-08T14:51:53.076Z,21.30
2018-06-08T14:54:20.623Z,21.40
2018-06-08T14:56:48.186Z,21.50
2018-06-08T14:59:15.746Z,21.50
2018-06-08T15:01:43.312Z,21.50
2018-06-08T15:04:10.876Z,21.60
2018-06-08T15:06:38.411Z,21.60
2018-06-08T15:09:05.962Z,21.50
2018-06-08T15:11:37.913Z,21.40
2018-06-08T15:14:05.435Z,21.20
2018-06-08T15:16:34.906Z,21.30
2018-06-08T15:19:02.501Z,21.30
2018-06-08T15:21:30.051Z,21.30
2018-06-08T15:23:57.601Z,21.30
2018-06-08T15:26:25.160Z,21.30
2018-06-08T15:28:52.709Z,21.30
2018-06-08T15:31:20.266Z,21.10
2018-06-08T15:33:49.741Z,21.10
2018-06-08T15:36:17.300Z,21.10
2018-06-08T15:38:44.864Z,21.10
2018-06-08T15:41:12.419Z,21.10
2018-06-08T15:43:41.907Z,21.20
2018-06-08T15:46:09.441Z,21.30
2018-06-08T15:48:36.981Z,21.30
2018-06-08T15:51:04.522Z,21.30
2018-06-08T15:53:34.066Z,21.30
2018-06-08T15:56:01.691Z,21.30
2018-06-08T15:58:29.303Z,21.40
2018-06-08T16:00:56.856Z,21.30
2018-06-08T16:03:25.204Z,21.20
2018-06-08T16:05:52.751Z,21.20
2018-06-08T16:08:20.326Z,21.10
2018-06-08T16:10:47.888Z,21.00
2018-06-08T16:13:15.425Z,21.10
2018-06-08T16:15:42.977Z,21.20
2018-06-08T16:18:11.476Z,21.30
2018-06-08T16:20:39.040Z,21.60
2018-06-08T16:23:06.602Z,21.70
2018-06-08T16:25:35.088Z,21.80
2018-06-08T16:28:02.624Z,21.80
2018-06-08T16:30:30.180Z,21.60
2018-06-08T16:32:57.700Z,21.30
2018-06-08T16:35:25.259Z,21.10
2018-06-08T16:37:53.597Z,21.50
2018-06-08T16:40:22.168Z,21.50
2018-06-08T16:42:49.700Z,21.50
2018-06-08T16:45:17.226Z,21.40
2018-06-08T16:47:44.776Z,21.10
2018-06-08T16:50:12.333Z,21.10
2018-06-08T16:52:39.877Z,21.20
2018-06-08T16:55:07.413Z,21.10
2018-06-08T16:57:34.945Z,21.10
2018-06-08T17:00:02.537Z,21.20
2018-06-08T17:02:30.087Z,21.40
2018-06-08T17:04:58.756Z,21.60
2018-06-08T17:07:26.637Z,21.60
2018-06-08T17:09:55.325Z,21.70
2018-06-08T17:12:22.923Z,21.80
2018-06-08T17:14:50.477Z,21.90
2018-06-08T17:17:18.096Z,21.90
2018-06-08T17:19:45.620Z,22.00
2018-06-08T17:22:13.421Z,21.90
2018-06-08T17:24:41.912Z,22.00
2018-06-08T17:27:09.494Z,21.80
2018-06-08T17:29:37.224Z,21.90
2018-06-08T17:32:04.761Z,22.00
2018-06-08T17:34:32.317Z,22.00
2018-06-08T17:37:00.637Z,22.10
2018-06-08T17:39:28.217Z,22.10
2018-06-08T17:41:56.965Z,22.10
2018-06-08T17:44:24.509Z,22.00
2018-06-08T17:46:53.006Z,21.70
2018-06-08T17:49:21.901Z,21.20
2018-06-08T17:51:50.691Z,20.80
2018-06-08T17:54:18.302Z,20.50
2018-06-08T17:56:46.330Z,20.70
2018-06-08T17:59:14.620Z,20.70
2018-06-08T18:01:43.105Z,20.80
2018-06-08T18:04:11.611Z,20.80
2018-06-08T18:06:39.243Z,20.90
2018-06-08T18:09:06.787Z,20.80
2018-06-08T18:11:34.344Z,20.80
2018-06-08T18:14:01.938Z,20.60
2018-06-08T18:16:29.517Z,20.40
2018-06-08T18:18:57.845Z,20.40
2018-06-08T18:21:25.384Z,20.30
2018-06-08T18:23:52.933Z,20.20
2018-06-08T18:26:20.485Z,20.30
2018-06-08T18:28:48.851Z,20.50
2018-06-08T18:31:17.371Z,20.50
2018-06-08T18:33:44.897Z,20.50
2018-06-08T18:36:13.255Z,20.20
2018-06-08T18:38:40.805Z,20.20
2018-06-08T18:41:08.350Z,20.10
2018-06-08T18:43:35.878Z,20.10
2018-06-08T18:46:03.428Z,20.00
2018-06-08T18:48:30.964Z,19.80
2018-06-08T18:50:59.297Z,20.00
2018-06-08T18:53:26.830Z,20.00
2018-06-08T18:55:54.374Z,20.00
2018-06-08T18:58:21.899Z,19.70
2018-06-08T19:00:49.464Z,19.60
2018-06-08T19:03:17.014Z,19.70
2018-06-08T19:05:45.300Z,20.00
2018-06-08T19:08:12.844Z,19.90
2018-06-08T19:10:40.376Z,20.00
2018-06-08T19:13:08.704Z,19.90
2018-06-08T19:15:37.056Z,19.70
2018-06-08T19:18:04.620Z,19.60
2018-06-08T19:20:32.160Z,19.50
2018-06-08T19:22:59.704Z,19.60
2018-06-08T19:25:27.256Z,19.60
2018-06-08T19:27:54.821Z,19.60
2018-06-08T19:30:22.372Z,19.70
2018-06-08T19:32:49.933Z,19.30
2018-06-08T19:35:17.560Z,19.10
2018-06-08T19:37:46.077Z,19.10
2018-06-08T19:40:13.616Z,19.20
2018-06-08T19:42:41.146Z,19.20
2018-06-08T19:45:09.481Z,19.10
2018-06-08T19:47:37.020Z,19.10
2018-06-08T19:50:04.622Z,19.10
2018-06-08T19:52:32.142Z,19.00
2018-06-08T19:54:59.692Z,19.00
2018-06-08T19:57:29.194Z,19.00
2018-06-08T19:59:56.733Z,18.80
2018-06-08T20:02:24.289Z,18.80
2018-06-08T20:04:51.828Z,18.70
2018-06-08T20:07:19.372Z,18.60
2018-06-08T20:09:46.933Z,18.50
2018-06-08T20:12:14.476Z,18.40
2018-06-08T20:14:42.196Z,18.30
2018-06-08T20:17:09.744Z,18.30
2018-06-08T20:19:37.268Z,18.10
2018-06-08T20:22:05.624Z,18.40
2018-06-08T20:24:33.152Z,18.40
2018-06-08T20:27:00.720Z,18.50
2018-06-08T20:29:28.406Z,18.60
2018-06-08T20:31:55.975Z,18.60
2018-06-08T20:34:23.544Z,18.60
2018-06-08T20:36:51.098Z,18.60
2018-06-08T20:39:20.590Z,18.60
2018-06-08T20:41:48.138Z,18.60
2018-06-08T20:44:15.711Z,18.60
2018-06-08T20:46:43.595Z,18.60
2018-06-08T20:49:11.168Z,18.60
2018-06-08T20:51:38.778Z,18.50
2018-06-08T20:54:06.340Z,18.50
2018-06-08T20:56:33.921Z,18.60
2018-06-08T20:59:01.479Z,18.60
2018-06-08T21:01:29.069Z,18.40
2018-06-08T21:03:56.607Z,18.50
2018-06-08T21:06:26.166Z,18.50
2018-06-08T21:08:55.627Z,18.40
2018-06-08T21:11:23.262Z,18.30
2018-06-08T21:13:50.945Z,18.30
2018-06-08T21:16:18.613Z,18.30
2018-06-08T21:18:46.167Z,18.40
2018-06-08T21:21:13.772Z,18.40
2018-06-08T21:23:42.174Z,18.30
2018-06-08T21:26:09.703Z,18.30
2018-06-08T21:28:37.281Z,18.30
2018-06-08T21:31:06.441Z,18.10
2018-06-08T21:33:36.041Z,17.90
2018-06-08T21:36:05.378Z,17.80
2018-06-08T21:38:34.658Z,18.00
2018-06-08T21:41:04.517Z,18.00
2018-06-08T21:43:33.659Z,17.90
2018-06-08T21:46:01.484Z,17.90
2018-06-08T21:48:29.544Z,17.90
2018-06-08T21:50:57.101Z,18.00
2018-06-08T21:53:24.668Z,17.90
2018-06-08T21:55:52.257Z,18.00
2018-06-08T21:58:19.844Z,17.90
2018-06-08T22:00:47.517Z,17.80
2018-06-08T22:06:08.408Z,17.70
2018-06-08T22:08:35.975Z,17.70
2018-06-08T22:11:04.325Z,17.40
2018-06-08T22:13:31.896Z,17.30
2018-06-08T22:15:59.529Z,17.30
2018-06-08T22:18:27.061Z,17.20
2018-06-08T22:20:54.657Z,17.30
2018-06-08T22:23:22.314Z,17.30
2018-06-08T22:25:51.193Z,17.20
2018-06-08T22:28:22.093Z,17.10
2018-06-08T22:30:53.143Z,17.30
2018-06-08T22:33:24.228Z,17.40
2018-06-08T22:35:53.078Z,17.60
2018-06-08T22:38:22.296Z,17.60
2018-06-08T22:40:49.876Z,17.60
2018-06-08T22:43:17.445Z,17.60
2018-06-08T22:45:47.026Z,17.60
2018-06-08T22:48:17.268Z,17.60
2018-06-08T22:50:44.852Z,17.70
2018-06-08T22:53:13.423Z,17.70
2018-06-08T22:55:41.025Z,17.70
2018-06-08T22:58:08.892Z,17.70
2018-06-08T23:00:36.483Z,17.70
2018-06-08T23:03:06.013Z,17.60
2018-06-08T23:05:33.570Z,17.60
2018-06-08T23:08:02.262Z,17.60
2018-06-08T23:10:30.641Z,17.80
2018-06-08T23:12:58.964Z,17.80
2018-06-08T23:15:26.537Z,17.70
2018-06-08T23:17:54.068Z,17.70
2018-06-08T23:20:23.441Z,17.70
2018-06-08T23:22:51.772Z,17.70
2018-06-08T23:25:22.270Z,17.70
2018-06-08T23:27:50.800Z,17.60
2018-06-08T23:30:18.423Z,17.60
2018-06-08T23:32:47.368Z,17.40
2018-06-08T23:35:23.914Z,17.10
2018-06-08T23:37:52.092Z,17.10
2018-06-08T23:40:19.652Z,16.80
2018-06-08T23:42:47.240Z,16.70
2018-06-08T23:45:16.833Z,17.00
2018-06-08T23:50:18.987Z,17.10
2018-06-08T23:52:46.579Z,17.10
2018-06-08T23:55:15.037Z,17.10
2018-06-08T23:57:42.580Z,17.20
